Time;durP1;ratioP1;P1;durP2;ratioP2;P2;SDS_P1;SDS_P2;PMS_P1;PMS_P2;Temp;Humidity;BMP_temperature;BMP_pressure;BME280_temperature;BME280_humidity;BME280_pressure;Samples;Min_cycle;Max_cycle;Signal;HPM_P1;HPM_P2
2024/03/12 00:01:30;;;;;;;;;;;;;;;10.09;100.00;94239.63;10349149;28;19917;-75
2024/03/12 00:06:30;;;;;;;;;;;;;;;9.86;100.00;94253.75;10365952;28;19999;-74
2024/03/12 00:11:31;;;;;;;;;;;;;;;9.63;100.00;94257.94;10349494;28;20310;-75
2024/03/12 00:16:31;;;;;;;;;;;;;;;9.59;100.00;94249.66;10348787;28;19935;-81
2024/03/12 00:21:35;;;;;;;;;;;;;;;9.49;100.00;94258.59;10348179;28;19914;-78
2024/03/12 00:26:36;;;;;;;;;;;;;;;9.23;100.00;94253.34;10365558;28;19924;-76
2024/03/12 00:31:36;;;;;;;;;;;;;;;8.99;100.00;94242.47;10348213;28;19917;-75
2024/03/12 00:36:36;;;;;;;;;;;;;;;8.85;100.00;94238.81;10347754;28;19960;-76
2024/03/12 00:41:37;;;;;;;;;;;;;;;8.70;100.00;94240.44;10346171;28;19956;-75
2024/03/12 00:46:38;;;;;;;;;;;;;;;8.69;100.00;94221.97;10346626;28;19917;-76
2024/03/12 00:51:38;;;;;;;;;;;;;;;8.75;100.00;94212.03;10365082;28;19913;-75
2024/03/12 00:56:38;;;;;;;;;;;;;;;8.19;100.00;94236.00;10347988;28;19917;-78
2024/03/12 01:01:38;;;;;;;;;;;;;;;8.07;100.00;94214.06;10346332;28;19917;-80
2024/03/12 01:06:39;;;;;;;;;;;;;;;8.31;100.00;94206.25;10346226;28;19921;-79
2024/03/12 01:11:40;;;;;;;;;;;;;;;8.42;100.00;94199.00;10345545;28;19914;-75
2024/03/12 01:16:40;;;;;;;;;;;;;;;8.53;100.00;94186.41;10363861;28;19976;-75
2024/03/12 01:21:40;;;;;;;;;;;;;;;8.45;100.00;94187.75;10346746;28;19917;-78
2024/03/12 01:26:41;;;;;;;;;;;;;;;8.12;100.00;94175.78;10346242;28;20035;-81
2024/03/12 01:31:44;;;;;;;;;;;;;;;8.07;100.00;94155.19;10347160;28;19917;-79
2024/03/12 01:36:47;;;;;;;;;;;;;;;7.81;100.00;94170.47;10330669;28;20348;-81
2024/03/12 01:41:47;;;;;;;;;;;;;;;7.52;100.00;94169.16;10345722;28;19923;-79
2024/03/12 01:46:48;;;;;;;;;;;;;;;7.47;100.00;94149.66;10363362;28;19918;-80
2024/03/12 01:51:49;;;;;;;;;;;;;;;7.57;100.00;94162.22;10345761;28;19957;-77
2024/03/12 01:56:50;;;;;;;;;;;;;;;7.55;100.00;94157.13;10344563;28;19920;-82
2024/03/12 02:02:02;;;;;;;;;;;;;;;7.57;100.00;94117.53;10362030;28;19917;-79
2024/03/12 02:07:03;;;;;;;;;;;;;;;7.35;100.00;94115.97;10361718;28;20343;-77
2024/03/12 02:12:04;;;;;;;;;;;;;;;7.45;100.00;94099.13;10361790;28;19920;-74
2024/03/12 02:17:05;;;;;;;;;;;;;;;7.32;100.00;94062.25;10345649;28;19921;-75
2024/03/12 02:22:05;;;;;;;;;;;;;;;7.27;100.00;94052.38;10347571;28;19925;-76
2024/03/12 02:27:05;;;;;;;;;;;;;;;7.19;100.00;94031.53;10345156;28;20000;-76
2024/03/12 02:32:06;;;;;;;;;;;;;;;7.19;100.00;94020.84;10344236;28;20317;-73
2024/03/12 02:37:06;;;;;;;;;;;;;;;7.26;100.00;94008.00;10343754;28;19914;-77
2024/03/12 02:42:08;;;;;;;;;;;;;;;7.37;100.00;94011.44;10343170;28;20022;-79
2024/03/12 02:47:09;;;;;;;;;;;;;;;7.55;100.00;94039.47;10343177;28;19928;-79
2024/03/12 02:52:11;;;;;;;;;;;;;;;7.74;100.00;94044.25;10343086;28;19939;-83
2024/03/12 02:57:11;;;;;;;;;;;;;;;7.80;100.00;94051.16;10364275;28;19920;-80
2024/03/12 03:02:12;;;;;;;;;;;;;;;7.71;100.00;94058.97;10341135;28;20277;-74
2024/03/12 03:07:16;;;;;;;;;;;;;;;7.61;100.00;94075.03;10342008;28;19921;-74
2024/03/12 03:12:17;;;;;;;;;;;;;;;7.67;100.00;94076.63;10359645;28;19956;-81
2024/03/12 03:17:17;;;;;;;;;;;;;;;7.61;100.00;94083.06;10341428;28;20015;-81
2024/03/12 03:22:18;;;;;;;;;;;;;;;7.72;100.00;94075.78;10360215;28;20386;-74
2024/03/12 03:27:19;;;;;;;;;;;;;;;7.50;100.00;94087.63;10342189;28;20008;-75
2024/03/12 03:32:21;;;;;;;;;;;;;;;7.36;100.00;94104.19;10342781;28;19967;-77
2024/03/12 03:37:21;;;;;;;;;;;;;;;7.32;100.00;94105.00;10342407;28;19979;-75
2024/03/12 03:42:21;;;;;;;;;;;;;;;7.59;100.00;94118.09;10341846;28;19918;-76
2024/03/12 03:47:21;;;;;;;;;;;;;;;7.54;100.00;94118.09;10356325;28;21011;-76
2024/03/12 03:52:22;;;;;;;;;;;;;;;7.70;100.00;94111.66;10360559;28;20024;-75
2024/03/12 03:57:22;;;;;;;;;;;;;;;7.74;100.00;94116.47;10358431;28;19992;-76
2024/03/12 04:02:23;;;;;;;;;;;;;;;7.77;100.00;94113.25;10341408;28;19916;-76
2024/03/12 04:07:23;;;;;;;;;;;;;;;7.68;100.00;94113.00;10342068;28;20798;-80
2024/03/12 04:12:24;;;;;;;;;;;;;;;7.71;100.00;94101.75;10359597;28;20288;-75
2024/03/12 04:17:25;;;;;;;;;;;;;;;7.46;100.00;94100.72;10347240;28;19921;-74
2024/03/12 04:22:26;;;;;;;;;;;;;;;7.67;100.00;94093.47;10369267;28;20092;-75
2024/03/12 04:27:27;;;;;;;;;;;;;;;7.78;100.00;94098.81;10349057;28;19917;-75
2024/03/12 04:32:27;;;;;;;;;;;;;;;7.68;100.00;94102.31;10348502;28;20420;-76
2024/03/12 04:37:31;;;;;;;;;;;;;;;7.95;100.00;94107.31;10365604;28;19909;-81
2024/03/12 04:42:36;;;;;;;;;;;;;;;8.07;100.00;94100.88;10353133;28;19917;-75
2024/03/12 04:47:40;;;;;;;;;;;;;;;8.07;100.00;94087.50;10347036;28;19925;-75
2024/03/12 04:52:41;;;;;;;;;;;;;;;8.19;100.00;94090.63;10348718;28;20487;-79
2024/03/12 04:57:42;;;;;;;;;;;;;;;8.19;100.00;94090.63;10364565;28;19913;-76
2024/03/12 05:02:43;;;;;;;;;;;;;;;8.29;100.00;94098.66;10364349;28;19928;-75
2024/03/12 05:07:47;;;;;;;;;;;;;;;8.10;100.00;94094.97;10364490;28;19921;-77
2024/03/12 05:12:50;;;;;;;;;;;;;;;7.96;100.00;94087.50;10345382;28;19920;-76
2024/03/12 05:17:52;;;;;;;;;;;;;;;7.93;100.00;94098.75;10345419;28;19921;-77
2024/03/12 05:22:53;;;;;;;;;;;;;;;8.04;100.00;94099.53;10345745;28;20380;-76
2024/03/12 05:27:53;;;;;;;;;;;;;;;8.03;100.00;94104.06;10323964;28;19917;-76
2024/03/12 05:32:56;;;;;;;;;;;;;;;7.97;100.00;94104.38;10304465;28;20415;-79
2024/03/12 05:38:02;;;;;;;;;;;;;;;7.82;100.00;94106.00;10318951;28;20368;-80
2024/03/12 05:48:22;;;;;;;;;;;;;;;7.78;100.00;94104.94;10305580;28;19913;-80
2024/03/12 05:53:24;;;;;;;;;;;;;;;7.86;100.00;94111.63;10337198;28;20289;-76
2024/03/12 05:58:25;;;;;;;;;;;;;;;8.42;100.00;94107.94;10333192;28;20016;-77
2024/03/12 06:03:25;;;;;;;;;;;;;;;8.80;100.00;94111.00;10379497;28;19931;-76
2024/03/12 06:08:25;;;;;;;;;;;;;;;9.28;100.00;94102.38;10354134;28;19940;-76
2024/03/12 06:13:27;;;;;;;;;;;;;;;9.84;100.00;94114.50;10354074;28;19952;-77
2024/03/12 06:18:28;;;;;;;;;;;;;;;10.07;100.00;94101.38;10349136;28;20854;-76
2024/03/12 06:23:28;;;;;;;;;;;;;;;10.31;100.00;94100.56;10327356;28;19938;-76
2024/03/12 06:28:30;;;;;;;;;;;;;;;10.71;100.00;94101.16;10312755;28;19919;-79
2024/03/12 06:33:31;;;;;;;;;;;;;;;11.03;100.00;94092.38;10349470;28;20439;-82
2024/03/12 06:38:31;;;;;;;;;;;;;;;11.88;100.00;94091.56;10359632;28;19913;-77
2024/03/12 06:43:33;;;;;;;;;;;;;;;12.26;100.00;94094.13;10322682;28;19928;-77
2024/03/12 06:48:33;;;;;;;;;;;;;;;13.82;100.00;94088.50;10349151;28;20476;-77
2024/03/12 06:53:35;;;;;;;0.00;0.00;;;;;;;14.82;100.00;94101.78;10349837;28;20535;-75
2024/03/12 06:58:39;;;;;;;0.00;0.00;;;;;;;14.80;100.00;94102.09;10346223;28;20507;-77
2024/03/12 07:03:40;;;;;;;0.00;0.00;;;;;;;14.09;100.00;94108.31;10355803;28;20590;-77
2024/03/12 07:08:41;;;;;;;0.00;0.00;;;;;;;14.50;100.00;94101.03;10366408;28;20036;-77
2024/03/12 07:13:43;;;;;;;0.00;0.00;;;;;;;15.60;100.00;94105.63;10368402;28;20106;-80
2024/03/12 07:18:43;;;;;;;0.00;0.00;;;;;;;15.42;100.00;94102.94;10349930;28;20056;-75
2024/03/12 07:23:43;;;;;;;0.00;0.00;;;;;;;15.77;100.00;94100.19;10350274;28;20040;-77
2024/03/12 07:28:45;;;;;;;0.00;0.00;;;;;;;16.39;100.00;94117.91;10348067;28;20032;-77
2024/03/12 07:33:45;;;;;;;0.00;0.00;;;;;;;15.48;100.00;94120.63;10349960;28;20353;-76
2024/03/12 07:38:45;;;;;;;0.00;0.00;;;;;;;14.67;100.00;94122.75;10371158;28;20021;-78
2024/03/12 07:43:46;;;;;;;0.00;0.00;;;;;;;13.97;100.00;94122.44;10355069;28;20026;-75
2024/03/12 07:48:49;;;;;;;0.00;0.00;;;;;;;13.55;100.00;94115.63;10355583;28;20281;-78
2024/03/12 07:53:49;;;;;;;0.00;0.00;;;;;;;13.63;100.00;94123.00;10361812;28;20033;-75
2024/03/12 07:58:51;;;;;;;0.00;0.00;;;;;;;13.41;100.00;94119.22;10361497;28;20029;-77
2024/03/12 08:03:52;;;;;;;0.00;0.00;;;;;;;13.36;100.00;94118.53;10362928;28;20072;-76
2024/03/12 08:08:52;;;;;;;0.00;0.00;;;;;;;13.13;100.00;94118.44;10357801;28;20044;-77
2024/03/12 08:13:54;;;;;;;0.00;0.00;;;;;;;13.22;100.00;94118.53;10373082;28;20644;-76
2024/03/12 08:18:55;;;;;;;0.00;0.00;;;;;;;13.97;100.00;94122.44;10379159;28;20037;-75
2024/03/12 08:23:58;;;;;;;0.00;0.00;;;;;;;13.69;100.00;94116.38;10379697;28;20169;-81
2024/03/12 08:28:58;;;;;;;0.00;0.00;;;;;;;13.38;100.00;94114.44;10362086;28;20405;-80
2024/03/12 08:34:00;;;;;;;0.00;0.00;;;;;;;13.47;100.00;94125.28;10349425;28;20050;-77
2024/03/12 08:39:01;;;;;;;0.00;0.00;;;;;;;13.62;100.00;94121.44;10377734;28;20473;-75
2024/03/12 08:44:01;;;;;;;0.00;0.00;;;;;;;13.82;100.00;94112.00;10378698;28;20400;-76
2024/03/12 08:49:05;;;;;;;0.00;0.00;;;;;;;14.12;100.00;94118.53;10356868;28;20042;-76
2024/03/12 08:54:06;;;;;;;0.00;0.00;;;;;;;14.66;100.00;94109.53;10374671;28;20369;-77
2024/03/12 08:59:08;;;;;;;0.00;0.00;;;;;;;14.27;100.00;94121.94;10369159;28;20017;-75
2024/03/12 09:04:09;;;;;;;0.00;0.00;;;;;;;14.23;100.00;94116.34;10358431;28;20150;-77
2024/03/12 09:09:09;;;;;;;0.00;0.00;;;;;;;14.24;100.00;94117.16;10356014;28;20040;-75
2024/03/12 09:14:10;;;;;;;0.00;0.00;;;;;;;14.43;100.00;94112.31;10354863;28;20293;-75
2024/03/12 09:19:13;;;;;;;0.00;0.00;;;;;;;14.32;100.00;94094.78;10375477;28;20041;-75
2024/03/12 09:24:15;;;;;;;0.00;0.00;;;;;;;14.09;100.00;94097.53;10364056;28;20104;-77
2024/03/12 09:29:15;;;;;;;0.00;0.00;;;;;;;13.78;100.00;94092.91;10356042;28;20141;-77
2024/03/12 09:34:16;;;;;;;0.00;0.00;;;;;;;14.10;100.00;94085.59;10361953;28;20423;-77
2024/03/12 09:39:17;;;;;;;0.00;0.00;;;;;;;14.28;100.00;94091.88;10365831;28;20049;-76
2024/03/12 09:44:20;;;;;;;0.00;0.00;;;;;;;14.02;100.00;94094.47;10363068;28;20514;-75
2024/03/12 09:49:20;;;;;;;0.00;0.00;;;;;;;13.70;100.00;94093.66;10374467;28;20035;-75
2024/03/12 09:54:21;;;;;;;0.00;0.00;;;;;;;13.50;100.00;94089.56;10364758;28;20025;-76
2024/03/12 09:59:21;;;;;;;0.00;0.00;;;;;;;13.41;100.00;94081.41;10378248;28;20407;-76
2024/03/12 10:04:23;;;;;;;0.00;0.00;;;;;;;13.56;100.00;94068.63;10364768;28;20507;-77
2024/03/12 10:09:27;;;;;;;0.00;0.00;;;;;;;13.63;100.00;94074.41;10375894;28;20033;-75
2024/03/12 10:14:29;;;;;;;0.00;0.00;;;;;;;13.50;100.00;94063.34;10357183;28;20042;-75
2024/03/12 10:19:30;;;;;;;0.00;0.00;;;;;;;13.74;100.00;94046.03;10356077;28;20501;-80
2024/03/12 10:24:32;;;;;;;0.00;0.00;;;;;;;13.70;100.00;94047.75;10355547;28;20032;-77
2024/03/12 10:29:35;;;;;;;0.00;0.00;;;;;;;13.98;100.00;94048.38;10356757;28;20056;-77
2024/03/12 10:34:35;;;;;;;0.00;0.00;;;;;;;14.50;100.00;94049.66;10362180;28;20029;-77
2024/03/12 10:39:39;;;;;;;0.00;0.00;;;;;;;14.98;100.00;94035.25;10366905;28;20030;-76
2024/03/12 10:44:42;;;;;;;0.00;0.00;;;;;;;14.78;100.00;94035.91;10362074;28;20315;-75
2024/03/12 10:49:47;;;;;;;0.00;0.00;;;;;;;15.77;94.51;94016.22;10365040;28;20489;-76
2024/03/12 10:54:47;;;;;;;0.00;0.00;;;;;;;17.33;80.25;94012.13;10366939;28;20036;-80
2024/03/12 10:59:48;;;;;;;0.00;0.00;;;;;;;17.62;77.17;94003.06;10365138;28;20087;-77
2024/03/12 11:04:52;;;;;;;0.00;0.00;;;;;;;19.54;69.69;93987.94;10358431;28;20048;-79
2024/03/12 11:09:53;;;;;;;0.00;0.00;;;;;;;23.44;47.49;93977.16;10355606;28;20534;-75
2024/03/12 11:14:58;;;;;;;;;;;;;;;26.58;39.28;93961.28;10350575;28;20455;-75
2024/03/12 11:19:58;;;;;;;;;;;;;;;27.26;36.59;93959.59;10365762;28;20016;-77
2024/03/12 11:24:59;;;;;;;12.60;5.10;;;;;;;28.52;34.58;93952.59;10355834;28;20061;-77
2024/03/12 11:29:59;;;;;;;;;;;;;;;28.89;32.71;93945.56;10381071;28;20464;-83
2024/03/12 11:35:04;;;;;;;;;;;;;;;28.85;32.64;93942.81;10374936;28;20419;-82
2024/03/12 11:40:23;;;;;;;;;;;;;;;25.97;36.64;93938.41;10367020;28;20020;-77
2024/03/12 11:45:40;;;;;;;;;;;;;;;23.11;42.81;93948.53;10340437;28;19955;-74
2024/03/12 11:50:42;;;;;;;;;;;;;;;21.38;47.42;93940.31;10370707;28;19918;-79
2024/03/12 11:55:58;;;;;;;;;;;;;;;19.52;53.29;93952.88;10361314;28;19912;-78
2024/03/12 12:00:59;;;;;;;;;;;;;;;18.64;58.21;93944.53;10353813;28;19996;-83
2024/03/12 12:05:59;;;;;;;;;;;;;;;18.34;63.93;93940.16;10360256;28;19909;-75
2024/03/12 12:11:05;;;;;;;;;;;;;;;17.92;66.83;93930.31;10350408;28;19921;-81
2024/03/12 12:16:05;;;;;;;;;;;;;;;18.18;68.57;93929.22;10357538;28;19917;-76
2024/03/12 12:21:14;;;;;;;;;;;;;;;17.77;70.85;93922.81;10363772;28;19917;-82
2024/03/12 12:26:20;;;;;;;;;;;;;;;17.33;69.68;93920.59;10370031;28;20379;-76
2024/03/12 12:31:21;;;;;;;;;;;;;;;16.77;77.21;93920.91;10356655;28;19987;-79
2024/03/12 12:36:25;;;;;;;;;;;;;;;16.62;77.24;93921.53;10362868;28;19920;-76
2024/03/12 12:41:26;;;;;;;;;;;;;;;16.41;73.78;93916.91;10365817;28;19913;-79
2024/03/12 12:46:27;;;;;;;;;;;;;;;16.29;82.19;93912.19;10392155;28;20390;-75
2024/03/12 12:51:28;;;;;;;;;;;;;;;16.23;82.67;93932.50;10353412;28;19921;-75
2024/03/12 12:56:30;;;;;;;;;;;;;;;15.77;90.95;93926.81;10360429;28;19917;-75
2024/03/12 13:01:32;;;;;;;;;;;;;;;15.09;97.49;93930.19;10365392;28;19963;-76
2024/03/12 13:06:39;;;;;;;;;;;;;;;14.76;100.00;93938.81;10364251;28;19948;-76
2024/03/12 13:11:39;;;;;;;;;;;;;;;14.45;100.00;93947.84;10366587;28;20367;-77
2024/03/12 13:16:42;;;;;;;;;;;;;;;14.35;100.00;93948.19;10369329;28;19933;-75
2024/03/12 13:21:43;;;;;;;;;;;;;;;13.89;100.00;93953.00;10378440;28;19928;-76
2024/03/12 13:26:44;;;;;;;;;;;;;;;13.57;100.00;93962.25;10356090;28;19921;-75
2024/03/12 13:31:45;;;;;;;;;;;;;;;13.40;100.00;93952.97;10375894;28;19909;-75
2024/03/12 13:36:47;;;;;;;;;;;;;;;13.22;100.00;93940.47;10341963;28;20298;-75
2024/03/12 13:41:47;;;;;;;;;;;;;;;12.94;100.00;93946.78;10344543;28;19959;-77
2024/03/12 13:46:47;;;;;;;;;;;;;;;12.60;100.00;93941.94;10367400;28;19913;-82
2024/03/12 13:51:48;;;;;;;;;;;;;;;12.50;100.00;93955.66;10359169;28;19974;-76
2024/03/12 13:56:49;;;;;;;;;;;;;;;12.75;100.00;93943.47;10382050;28;19920;-79
2024/03/12 14:01:49;;;;;;;;;;;;;;;12.89;100.00;93938.03;10356992;28;19920;-76
2024/03/12 14:06:49;;;;;;;;;;;;;;;13.13;100.00;93937.69;10359269;28;20395;-80
2024/03/12 14:11:49;;;;;;;;;;;;;;;13.45;100.00;93933.13;10352854;28;19956;-82
2024/03/12 14:16:51;;;;;;;;;;;;;;;13.79;100.00;93939.78;10357469;28;20195;-81
2024/03/12 14:21:52;;;;;;;;;;;;;;;14.05;100.00;93945.28;10359487;28;19928;-76
2024/03/12 14:26:53;;;;;;;;;;;;;;;13.99;100.00;93941.09;10379685;28;20332;-76
2024/03/12 14:31:53;;;;;;;;;;;;;;;14.10;100.00;93938.91;10364695;28;19909;-80
2024/03/12 14:36:55;;;;;;;;;;;;;;;13.94;100.00;93941.25;10370120;28;20450;-76
2024/03/12 14:41:55;;;;;;;;;;;;;;;14.02;100.00;93943.19;10359907;28;20658;-77
2024/03/12 14:46:56;;;;;;;;;;;;;;;13.13;100.00;93940.38;10341040;28;19921;-79
2024/03/12 14:51:57;;;;;;;;;;;;;;;12.63;100.00;93952.13;10350845;28;20465;-76
2024/03/12 14:56:57;;;;;;;;;;;;;;;12.20;100.00;93971.41;10349153;28;19997;-82
2024/03/12 15:01:57;;;;;;;;;;;;;;;12.28;100.00;93968.00;10357004;28;20068;-77
2024/03/12 15:06:58;;;;;;;;;;;;;;;12.39;100.00;93966.66;10365103;28;19978;-77
2024/03/12 15:11:59;;;;;;;;;;;;;;;11.91;100.00;93980.56;10354742;28;19917;-77
2024/03/12 15:16:59;;;;;;;;;;;;;;;11.78;100.00;93984.88;10383003;28;20398;-76
2024/03/12 15:22:04;;;;;;;;;;;;;;;11.96;100.00;93981.28;10361913;28;19920;-77
2024/03/12 15:27:05;;;;;;;;;;;;;;;12.12;100.00;93995.22;10383640;28;20422;-75
2024/03/12 15:32:06;;;;;;;;;;;;;;;12.12;100.00;93997.91;10359837;28;19921;-76
2024/03/12 15:37:07;;;;;;;;;;;;;;;11.57;100.00;94003.28;10361744;28;19913;-76
2024/03/12 15:42:08;;;;;;;;;;;;;;;10.39;100.00;94016.69;10371502;28;19978;-79
2024/03/12 15:47:08;;;;;;;;;;;;;;;9.55;100.00;94024.06;10358803;28;19920;-74
2024/03/12 15:52:08;;;;;;;;;;;;;;;8.76;100.00;94040.28;10376311;28;20334;-75
2024/03/12 15:57:09;;;;;;;;;;;;;;;8.67;100.00;94056.16;10355711;28;19916;-76
2024/03/12 16:02:10;;;;;;;;;;;;;;;8.62;100.00;94063.44;10352500;28;20003;-74
2024/03/12 16:07:10;;;;;;;;;;;;;;;8.82;100.00;94062.47;10359069;28;19920;-76
2024/03/12 16:12:13;;;;;;;;;;;;;;;9.10;100.00;94058.28;10386939;28;19917;-75
2024/03/12 16:17:13;;;;;;;;;;;;;;;9.23;100.00;94054.16;10375820;28;19992;-74
2024/03/12 16:22:13;;;;;;;;;;;;;;;8.82;100.00;94063.31;10365008;28;19921;-75
2024/03/12 16:27:13;;;;;;;;;;;;;;;9.03;100.00;94066.63;10369155;28;19917;-74
2024/03/12 16:32:15;;;;;;;;;;;;;;;9.21;100.00;94072.41;10364995;28;19954;-79
2024/03/12 16:37:17;;;;;;;;;;;;;;;9.12;100.00;94064.16;10389989;23;19914;-76
2024/03/12 16:42:18;;;;;;;;;;;;;;;8.86;100.00;94050.94;10280865;28;19922;-78
2024/03/12 16:47:18;;;;;;;;;;;;;;;8.65;100.00;94052.97;10277095;28;20023;-76
2024/03/12 16:52:18;;;;;;;;;;;;;;;8.55;100.00;94040.44;10277374;28;19968;-80
2024/03/12 16:57:18;;;;;;;;;;;;;;;8.68;100.00;94049.72;10280067;28;20063;-77
2024/03/12 17:02:20;;;;;;;;;;;;;;;8.76;100.00;94056.34;10283910;28;19932;-79
2024/03/12 17:07:22;;;;;;;;;;;;;;;8.84;100.00;94058.44;10278211;28;19930;-80
2024/03/12 17:12:24;;;;;;;;;;;;;;;8.83;100.00;94064.91;10290730;28;20049;-79
2024/03/12 17:17:24;;;;;;;;;;;;;;;8.30;100.00;94068.13;10286322;28;19924;-77
2024/03/12 17:22:25;;;;;;;;;;;;;;;8.05;100.00;94063.66;10278127;28;19910;-76
2024/03/12 17:27:29;;;;;;;;;;;;;;;8.09;100.00;94079.97;10276197;28;20242;-77
2024/03/12 17:32:30;;;;;;;;;;;;;;;8.07;100.00;94077.56;10281935;28;19916;-77
2024/03/12 17:37:34;;;;;;;;;;;;;;;8.20;100.00;94085.03;10282303;28;20178;-76
2024/03/12 17:42:38;;;;;;;;;;;;;;;8.10;100.00;94081.59;10275233;28;20379;-85
2024/03/12 17:47:47;;;;;;;;;;;;;;;8.08;100.00;94078.38;10291698;28;19969;-87
2024/03/12 17:52:50;;;;;;;;;;;;;;;8.36;100.00;94101.03;10279044;28;20380;-80
2024/03/12 17:57:51;;;;;;;;;;;;;;;8.55;100.00;94103.91;10275503;28;20356;-77
2024/03/12 18:02:51;;;;;;;;;;;;;;;8.63;100.00;94111.34;10275798;28;19948;-78
2024/03/12 18:07:52;;;;;;;;;;;;;;;8.66;100.00;94108.13;10270436;28;19918;-78
2024/03/12 18:12:52;;;;;;;;;;;;;;;8.65;100.00;94109.22;10278129;28;20431;-80
2024/03/12 18:17:52;;;;;;;;;;;;;;;8.79;100.00;94114.78;10282804;28;19913;-79
2024/03/12 18:22:53;;;;;;;;;;;;;;;8.75;100.00;94123.63;10276943;28;19920;-79
2024/03/12 18:27:55;;;;;;;;;;;;;;;8.68;100.00;94130.09;10276365;28;20020;-82
2024/03/12 18:32:55;;;;;;;;;;;;;;;8.73;100.00;94137.28;10273254;28;20318;-75
2024/03/12 18:37:55;;;;;;;;;;;;;;;8.89;100.00;94143.38;10275560;28;19930;-76
2024/03/12 18:42:56;;;;;;;;;;;;;;;8.97;100.00;94144.66;10277992;28;19910;-79
2024/03/12 18:47:56;;;;;;;;;;;;;;;8.92;100.00;94144.69;10286471;28;20021;-83
2024/03/12 18:52:57;;;;;;;;;;;;;;;8.96;100.00;94151.09;10282192;28;20431;-76
2024/03/12 18:57:58;;;;;;;;;;;;;;;8.98;100.00;94151.63;10275004;28;19939;-80
2024/03/12 19:03:03;;;;;;;;;;;;;;;8.95;100.00;94153.00;10274592;28;20511;-83
2024/03/12 19:08:03;;;;;;;;;;;;;;;8.97;100.00;94147.34;10280450;28;19921;-76
2024/03/12 19:13:06;;;;;;;;;;;;;;;9.03;100.00;94149.72;10280176;28;19921;-76
2024/03/12 19:18:11;;;;;;;;;;;;;;;8.94;100.00;94145.22;10280642;28;20007;-77
2024/03/12 19:23:11;;;;;;;;;;;;;;;8.88;100.00;94144.47;10277579;28;19918;-83
2024/03/12 19:28:12;;;;;;;;;;;;;;;8.87;100.00;94151.72;10273338;28;19922;-76
2024/03/12 19:33:16;;;;;;;;;;;;;;;8.62;100.00;94144.56;10270998;28;19967;-76
2024/03/12 19:38:17;;;;;;;;;;;;;;;8.21;100.00;94137.47;10268997;28;19921;-76
2024/03/12 19:43:18;;;;;;;;;;;;;;;8.03;100.00;94146.09;10281557;28;19910;-77
2024/03/12 19:48:18;;;;;;;;;;;;;;;8.20;100.00;94151.13;10284974;28;19913;-78
2024/03/12 19:53:19;;;;;;;;;;;;;;;8.30;100.00;94145.75;10291571;28;20351;-80
2024/03/12 19:58:19;;;;;;;;;;;;;;;8.09;100.00;94145.00;10279402;28;19917;-79
2024/03/12 20:03:22;;;;;;;;;;;;;;;8.03;100.00;94149.56;10294338;28;20001;-81
2024/03/12 20:08:22;;;;;;;;;;;;;;;8.20;100.00;94149.28;10281425;28;20013;-86
2024/03/12 20:13:23;;;;;;;;;;;;;;;8.23;100.00;94150.59;10286758;28;20507;-79
2024/03/12 20:18:28;;;;;;;;;;;;;;;8.36;100.00;94151.91;10285029;28;19918;-79
2024/03/12 20:23:29;;;;;;;;;;;;;;;8.41;100.00;94159.09;10294530;28;19996;-79
2024/03/12 20:28:30;;;;;;;;;;;;;;;8.47;100.00;94158.03;10276913;28;19922;-76
2024/03/12 20:33:31;;;;;;;;;;;;;;;8.18;100.00;94154.09;10285488;28;19917;-80
2024/03/12 20:38:31;;;;;;;;;;;;;;;8.07;100.00;94146.38;10283420;28;19922;-77
2024/03/12 20:43:31;;;;;;;;;;;;;;;8.27;100.00;94151.63;10289091;28;19914;-78
2024/03/12 20:48:31;;;;;;;;;;;;;;;8.43;100.00;94152.41;10285925;28;20012;-87
2024/03/12 20:53:33;;;;;;;;;;;;;;;8.60;100.00;94157.44;10269494;28;19909;-81
2024/03/12 20:58:33;;;;;;;;;;;;;;;8.63;100.00;94158.78;10293294;28;19956;-80
2024/03/12 21:03:37;;;;;;;;;;;;;;;8.71;100.00;94167.03;10284858;28;20448;-87
2024/03/12 21:08:37;;;;;;;;;;;;;;;8.83;100.00;94163.22;10281724;28;19979;-80
2024/03/12 21:13:38;;;;;;;;;;;;;;;8.82;100.00;94162.44;10318156;28;19910;-83
2024/03/12 21:18:38;;;;;;;;;;;;;;;8.90;100.00;94166.41;10307562;28;19913;-79
2024/03/12 21:23:38;;;;;;;;;;;;;;;8.93;100.00;94163.19;10306368;28;19992;-82
2024/03/12 21:28:40;;;;;;;;;;;;;;;8.97;100.00;94164.25;10311572;28;19914;-80
2024/03/12 21:33:40;;;;;;;;;;;;;;;8.89;100.00;94162.16;10311703;28;19941;-82
2024/03/12 21:38:41;;;;;;;;;;;;;;;8.77;100.00;94164.34;10292517;28;20524;-78
2024/03/12 21:43:41;;;;;;;;;;;;;;;8.75;100.00;94169.16;10310468;28;19968;-80
2024/03/12 21:48:42;;;;;;;;;;;;;;;8.81;100.00;94166.19;10309004;28;19913;-82
2024/03/12 21:53:46;;;;;;;;;;;;;;;8.64;100.00;94171.91;10270152;28;19964;-83
2024/03/12 21:58:47;;;;;;;;;;;;;;;8.66;100.00;94171.63;10269386;28;19917;-83
2024/03/12 22:03:50;;;;;;;;;;;;;;;8.66;100.00;94174.31;10267756;28;19910;-81
2024/03/12 22:08:51;;;;;;;;;;;;;;;8.66;100.00;94167.06;10283387;28;19928;-80
2024/03/12 22:13:51;;;;;;;;;;;;;;;8.68;100.00;94166.81;10308736;28;19909;-83
2024/03/12 22:18:51;;;;;;;;;;;;;;;8.77;100.00;94169.72;10306992;28;20133;-81
2024/03/12 22:23:53;;;;;;;;;;;;;;;8.75;100.00;94167.31;10309452;28;19909;-85
2024/03/12 22:28:54;;;;;;;;;;;;;;;8.71;100.00;94171.59;10323197;28;19913;-78
2024/03/12 22:33:55;;;;;;;;;;;;;;;8.67;100.00;94171.34;10309170;28;20379;-84
2024/03/12 22:38:55;;;;;;;;;;;;;;;8.57;100.00;94168.72;10309758;28;19944;-80
2024/03/12 22:43:56;;;;;;;;;;;;;;;8.58;100.00;94167.63;10309389;28;19960;-80
2024/03/12 22:48:57;;;;;;;;;;;;;;;8.60;100.00;94170.06;10330302;28;19964;-80
2024/03/12 22:53:57;;;;;;;;;;;;;;;8.52;100.00;94160.69;10332088;28;20348;-80
2024/03/12 22:58:57;;;;;;;;;;;;;;;8.48;100.00;94160.44;10349239;28;19913;-79
2024/03/12 23:03:58;;;;;;;;;;;;;;;8.59;100.00;94163.09;10349894;28;19913;-81
2024/03/12 23:09:00;;;;;;;;;;;;;;;8.71;100.00;94161.69;10349185;28;20299;-80
2024/03/12 23:14:01;;;;;;;;;;;;;;;8.63;100.00;94164.94;10347282;28;19910;-79
2024/03/12 23:19:01;;;;;;;;;;;;;;;8.43;100.00;94159.63;10348015;28;19916;-80
2024/03/12 23:24:03;;;;;;;;;;;;;;;8.39;100.00;94160.16;10347459;28;19913;-80
2024/03/12 23:29:04;;;;;;;;;;;;;;;8.56;100.00;94161.75;10339820;28;19971;-79
2024/03/12 23:34:05;;;;;;;;;;;;;;;8.46;100.00;94167.94;10313468;28;19909;-80
2024/03/12 23:39:06;;;;;;;;;;;;;;;8.47;100.00;94166.06;10323836;28;19926;-80
2024/03/12 23:44:08;;;;;;;;;;;;;;;8.60;100.00;94159.34;10307308;28;19913;-80
2024/03/12 23:49:08;;;;;;;;;;;;;;;8.55;100.00;94157.47;10307534;28;19914;-81
2024/03/12 23:54:08;;;;;;;;;;;;;;;8.59;100.00;94163.88;10305596;28;19910;-80
2024/03/12 23:59:09;;;;;;;;;;;;;;;8.68;100.00;94159.56;10306374;28;20209;-79
